createdAt,value
2017-12-29T00:01:41.728Z,18.47
2017-12-29T00:04:16.365Z,6.40
2017-12-29T00:06:50.823Z,8.83
2017-12-29T00:09:26.773Z,11.27
2017-12-29T00:12:01.269Z,6.57
2017-12-29T00:14:35.793Z,7.80
2017-12-29T00:17:10.177Z,6.53
2017-12-29T00:19:44.777Z,4.20
2017-12-29T00:22:19.203Z,20.20
2017-12-29T00:24:53.733Z,13.83
2017-12-29T00:27:28.125Z,4.30
2017-12-29T00:30:02.779Z,11.23
2017-12-29T00:32:37.416Z,5.40
2017-12-29T00:35:11.798Z,9.63
2017-12-29T00:37:46.332Z,21.57
2017-12-29T00:40:20.742Z,6.40
2017-12-29T00:42:55.249Z,5.40
2017-12-29T00:45:29.681Z,6.80
2017-12-29T00:48:04.221Z,11.00
2017-12-29T00:50:38.941Z,12.27
2017-12-29T00:53:13.472Z,8.57
2017-12-29T00:55:47.917Z,5.00
2017-12-29T00:58:22.413Z,7.77
2017-12-29T01:00:56.913Z,4.87
2017-12-29T01:03:31.433Z,9.50
2017-12-29T01:06:05.823Z,16.43
2017-12-29T01:08:40.344Z,9.13
2017-12-29T01:11:14.774Z,9.77
2017-12-29T01:13:49.289Z,4.67
2017-12-29T01:16:23.669Z,6.20
2017-12-29T01:18:58.186Z,6.07
2017-12-29T01:21:32.566Z,10.90
2017-12-29T01:24:07.144Z,5.67
2017-12-29T01:26:41.628Z,7.57
2017-12-29T01:29:16.120Z,5.60
2017-12-29T01:31:50.665Z,9.10
2017-12-29T01:34:25.261Z,4.03
2017-12-29T01:36:59.619Z,6.03
2017-12-29T01:39:33.826Z,6.00
2017-12-29T01:42:08.270Z,16.20
2017-12-29T01:44:42.785Z,3.90
2017-12-29T01:47:17.202Z,7.33
2017-12-29T01:49:51.790Z,17.63
2017-12-29T01:52:26.177Z,6.07
2017-12-29T01:55:00.735Z,6.60
2017-12-29T01:57:35.137Z,6.90
2017-12-29T02:00:09.585Z,14.50
2017-12-29T02:02:44.122Z,8.13
2017-12-29T02:05:18.517Z,5.93
2017-12-29T02:07:53.024Z,8.70
2017-12-29T02:10:27.461Z,4.13
2017-12-29T02:13:02.021Z,10.33
2017-12-29T02:15:36.788Z,6.40
2017-12-29T02:18:11.320Z,7.57
2017-12-29T02:20:45.764Z,9.17
2017-12-29T02:23:20.347Z,5.00
2017-12-29T02:25:54.762Z,5.43
2017-12-29T02:28:29.270Z,4.93
2017-12-29T02:31:03.713Z,6.80
2017-12-29T02:33:38.233Z,11.60
2017-12-29T02:36:12.713Z,3.93
2017-12-29T02:38:47.221Z,6.27
2017-12-29T02:41:21.626Z,3.80
2017-12-29T02:43:55.985Z,3.70
2017-12-29T02:46:30.343Z,3.97
2017-12-29T02:49:04.849Z,3.20
2017-12-29T02:51:39.231Z,3.63
2017-12-29T02:54:13.737Z,5.37
2017-12-29T02:56:48.203Z,3.00
2017-12-29T02:59:22.886Z,13.43
2017-12-29T03:01:57.333Z,6.27
2017-12-29T03:04:31.844Z,2.87
2017-12-29T03:07:06.238Z,2.57
2017-12-29T03:09:40.782Z,3.23
2017-12-29T03:12:15.176Z,6.13
2017-12-29T03:14:49.696Z,2.37
2017-12-29T03:17:24.201Z,2.60
2017-12-29T03:19:58.605Z,2.40
2017-12-29T03:22:32.989Z,2.87
2017-12-29T03:25:07.504Z,3.53
2017-12-29T03:27:42.101Z,3.90
2017-12-29T03:30:16.541Z,3.50
2017-12-29T03:32:51.121Z,6.07
2017-12-29T03:35:25.551Z,1.80
2017-12-29T03:38:00.143Z,2.53
2017-12-29T03:40:34.581Z,2.17
2017-12-29T03:43:09.158Z,1.43
2017-12-29T03:45:43.624Z,2.80
2017-12-29T03:48:18.138Z,3.80
2017-12-29T03:50:52.655Z,2.63
2017-12-29T03:53:27.146Z,2.60
2017-12-29T03:56:01.545Z,2.03
2017-12-29T03:58:36.033Z,6.00
2017-12-29T04:01:10.521Z,4.13
2017-12-29T04:03:45.114Z,3.50
2017-12-29T04:06:19.518Z,2.40
2017-12-29T04:08:54.091Z,10.80
2017-12-29T04:11:28.609Z,2.47
2017-12-29T04:14:03.115Z,3.40
2017-12-29T04:16:37.620Z,3.30
2017-12-29T04:19:12.096Z,5.23
2017-12-29T04:21:46.467Z,4.00
2017-12-29T04:24:21.024Z,5.10
2017-12-29T04:26:55.465Z,5.93
2017-12-29T04:29:29.976Z,2.83
2017-12-29T04:32:04.362Z,2.97
2017-12-29T04:34:38.924Z,4.13
2017-12-29T04:37:13.463Z,8.80
2017-12-29T04:39:48.038Z,11.80
2017-12-29T04:42:22.473Z,2.83
2017-12-29T04:44:56.931Z,2.40
2017-12-29T04:47:31.408Z,10.67
2017-12-29T04:50:05.916Z,2.60
2017-12-29T04:52:40.446Z,5.10
2017-12-29T04:55:14.825Z,2.67
2017-12-29T04:57:49.310Z,3.20
2017-12-29T05:00:23.777Z,5.77
2017-12-29T05:02:58.269Z,4.83
2017-12-29T05:05:32.652Z,6.63
2017-12-29T05:08:07.145Z,6.57
2017-12-29T05:10:42.141Z,11.13
2017-12-29T05:13:17.585Z,6.00
2017-12-29T05:15:52.165Z,3.73
2017-12-29T05:18:26.621Z,6.33
2017-12-29T05:21:01.118Z,4.33
2017-12-29T05:23:35.621Z,3.37
2017-12-29T05:26:10.053Z,4.40
2017-12-29T05:28:44.641Z,6.60
2017-12-29T05:31:19.129Z,3.83
2017-12-29T05:33:53.616Z,3.60
2017-12-29T05:36:28.249Z,4.47
2017-12-29T05:39:02.773Z,3.27
2017-12-29T05:41:37.173Z,4.33
2017-12-29T05:44:11.723Z,7.73
2017-12-29T05:46:46.261Z,3.13
2017-12-29T05:49:20.757Z,3.83
2017-12-29T05:51:55.235Z,11.30
2017-12-29T05:54:29.722Z,4.20
2017-12-29T05:57:04.156Z,2.77
2017-12-29T05:59:39.384Z,4.60
2017-12-29T06:02:14.209Z,2.40
2017-12-29T06:04:48.592Z,3.47
2017-12-29T06:07:22.980Z,2.27
2017-12-29T06:09:57.477Z,7.10
2017-12-29T06:12:31.872Z,3.03
2017-12-29T06:15:06.394Z,2.13
2017-12-29T06:17:40.963Z,2.73
2017-12-29T06:20:15.345Z,5.83
2017-12-29T06:22:49.830Z,1.60
2017-12-29T06:25:24.322Z,4.40
2017-12-29T06:27:58.946Z,1.90
2017-12-29T06:30:33.421Z,4.60
2017-12-29T06:33:07.937Z,3.53
2017-12-29T06:35:42.449Z,8.27
2017-12-29T06:38:16.956Z,4.77
2017-12-29T06:40:51.346Z,5.63
2017-12-29T06:43:25.779Z,2.77
2017-12-29T06:46:00.142Z,2.40
2017-12-29T06:48:34.636Z,1.87
2017-12-29T06:51:09.173Z,2.50
2017-12-29T06:53:43.766Z,7.13
2017-12-29T06:56:18.205Z,1.90
2017-12-29T06:58:52.725Z,3.57
2017-12-29T07:01:27.130Z,5.33
2017-12-29T07:04:01.634Z,1.73
2017-12-29T07:06:36.019Z,1.57
2017-12-29T07:09:10.545Z,2.37
2017-12-29T07:11:44.985Z,2.20
2017-12-29T07:14:19.511Z,6.70
2017-12-29T07:16:53.900Z,1.70
2017-12-29T07:19:28.446Z,6.20
2017-12-29T07:22:02.839Z,4.67
2017-12-29T07:24:37.358Z,8.33
2017-12-29T07:27:11.852Z,1.97
2017-12-29T07:29:46.403Z,4.53
2017-12-29T07:32:20.805Z,6.43
2017-12-29T07:34:55.345Z,3.17
2017-12-29T07:37:29.825Z,6.37
2017-12-29T07:40:04.435Z,6.60
2017-12-29T07:42:39.049Z,5.03
2017-12-29T07:45:13.495Z,4.17
2017-12-29T07:47:48.009Z,4.10
2017-12-29T07:50:22.401Z,6.80
2017-12-29T07:52:57.062Z,3.03
2017-12-29T07:55:31.454Z,4.77
2017-12-29T07:58:06.042Z,1.67
2017-12-29T08:00:40.446Z,4.27
2017-12-29T08:03:15.054Z,6.60
2017-12-29T08:05:49.455Z,2.47
2017-12-29T08:08:24.055Z,5.77
2017-12-29T08:10:58.442Z,3.83
2017-12-29T08:13:33.027Z,7.10
2017-12-29T08:16:07.432Z,3.33
2017-12-29T08:18:42.041Z,2.90
2017-12-29T08:21:16.410Z,3.27
2017-12-29T08:23:51.016Z,2.40
2017-12-29T08:26:25.437Z,3.30
2017-12-29T08:28:59.965Z,6.23
2017-12-29T08:31:34.368Z,4.17
2017-12-29T08:34:08.962Z,5.10
2017-12-29T08:36:43.537Z,9.10
2017-12-29T08:39:18.065Z,2.20
2017-12-29T08:41:52.486Z,3.17
2017-12-29T08:44:27.021Z,4.90
2017-12-29T08:47:01.424Z,5.30
2017-12-29T08:49:36.736Z,3.20
2017-12-29T08:52:11.242Z,5.57
2017-12-29T08:54:45.883Z,8.13
2017-12-29T08:57:20.349Z,6.03
2017-12-29T08:59:54.877Z,8.67
2017-12-29T09:02:29.353Z,3.23
2017-12-29T09:05:03.900Z,2.83
2017-12-29T09:07:38.332Z,6.80
2017-12-29T09:10:13.452Z,12.50
2017-12-29T09:12:48.113Z,3.03
2017-12-29T09:15:22.498Z,3.23
2017-12-29T09:17:56.870Z,2.40
2017-12-29T09:20:31.234Z,3.27
2017-12-29T09:23:05.621Z,2.83
2017-12-29T09:25:40.069Z,2.67
2017-12-29T09:28:14.596Z,8.00
2017-12-29T09:30:48.969Z,1.57
2017-12-29T09:33:24.134Z,1.90
2017-12-29T09:35:58.639Z,14.60
2017-12-29T09:38:33.235Z,2.50
2017-12-29T09:41:07.706Z,4.93
2017-12-29T09:43:42.197Z,3.00
2017-12-29T09:46:16.620Z,1.73
2017-12-29T09:48:51.049Z,1.67
2017-12-29T09:51:25.543Z,1.83
2017-12-29T09:54:00.169Z,1.90
2017-12-29T09:56:34.573Z,3.23
2017-12-29T09:59:09.109Z,1.83
2017-12-29T10:01:43.500Z,2.67
2017-12-29T10:04:18.081Z,2.23
2017-12-29T10:06:52.458Z,2.37
2017-12-29T10:09:26.954Z,2.93
2017-12-29T10:12:01.659Z,1.83
2017-12-29T10:14:36.142Z,2.20
2017-12-29T10:17:10.558Z,3.17
2017-12-29T10:19:45.097Z,4.50
2017-12-29T10:22:19.491Z,6.37
2017-12-29T10:24:54.105Z,1.63
2017-12-29T10:27:28.478Z,1.57
2017-12-29T10:30:03.010Z,2.87
2017-12-29T10:32:37.455Z,3.03
2017-12-29T10:35:12.010Z,1.40
2017-12-29T10:37:46.470Z,2.93
2017-12-29T10:40:20.864Z,2.93
2017-12-29T10:42:55.354Z,4.20
2017-12-29T10:45:29.753Z,1.60
2017-12-29T10:48:04.266Z,2.23
2017-12-29T10:50:38.701Z,3.13
2017-12-29T10:53:13.270Z,42.20
2017-12-29T10:55:47.673Z,39.13
2017-12-29T10:58:22.180Z,3.80
2017-12-29T11:00:56.646Z,3.83
2017-12-29T11:03:31.234Z,3.20
2017-12-29T11:06:05.652Z,6.23
2017-12-29T11:08:40.154Z,4.53
2017-12-29T11:11:14.550Z,2.23
2017-12-29T11:13:49.165Z,3.37
2017-12-29T11:16:23.533Z,4.73
2017-12-29T11:18:58.046Z,1.17
2017-12-29T11:21:32.548Z,2.73
2017-12-29T11:24:07.045Z,2.43
2017-12-29T11:26:41.460Z,1.50
2017-12-29T11:29:16.589Z,1.60
2017-12-29T11:31:51.146Z,11.70
2017-12-29T11:34:25.709Z,2.03
2017-12-29T11:37:00.130Z,7.20
2017-12-29T11:39:34.666Z,7.63
2017-12-29T11:42:09.117Z,3.17
2017-12-29T11:44:43.641Z,3.90
2017-12-29T11:47:18.065Z,1.53
2017-12-29T11:49:52.718Z,10.33
2017-12-29T11:52:27.127Z,0.93
2017-12-29T11:55:01.663Z,3.27
2017-12-29T11:57:36.066Z,2.67
2017-12-29T12:00:10.445Z,1.40
2017-12-29T12:02:44.961Z,2.00
2017-12-29T12:05:19.353Z,5.20
2017-12-29T12:07:53.874Z,1.70
2017-12-29T12:10:28.313Z,2.90
2017-12-29T12:13:02.840Z,3.13
2017-12-29T12:15:37.269Z,4.63
2017-12-29T12:18:11.649Z,2.97
2017-12-29T12:20:46.550Z,1.57
2017-12-29T12:23:21.093Z,3.43
2017-12-29T12:25:55.541Z,1.13
2017-12-29T12:28:30.126Z,2.00
2017-12-29T12:31:04.557Z,2.07
2017-12-29T12:33:39.134Z,2.43
2017-12-29T12:36:13.651Z,1.07
2017-12-29T12:38:48.114Z,2.93
2017-12-29T12:41:22.590Z,8.20
2017-12-29T12:43:57.163Z,1.80
2017-12-29T12:46:31.527Z,1.90
2017-12-29T12:49:06.139Z,5.40
2017-12-29T12:51:40.597Z,3.07
2017-12-29T12:54:15.142Z,1.70
2017-12-29T12:56:49.566Z,2.60
2017-12-29T12:59:24.114Z,4.40
2017-12-29T13:01:58.549Z,5.70
2017-12-29T13:04:33.062Z,1.20
2017-12-29T13:07:07.463Z,3.80
2017-12-29T13:09:42.097Z,2.20
2017-12-29T13:12:16.498Z,3.70
2017-12-29T13:14:51.042Z,3.80
2017-12-29T13:17:25.446Z,2.07
2017-12-29T13:19:59.929Z,4.43
2017-12-29T13:22:41.973Z,5.80
2017-12-29T13:25:16.514Z,3.23
2017-12-29T13:27:51.136Z,6.50
2017-12-29T13:30:25.528Z,8.23
2017-12-29T13:33:00.046Z,6.83
2017-12-29T13:35:34.449Z,5.93
2017-12-29T13:38:09.006Z,3.60
2017-12-29T13:40:43.461Z,2.50
2017-12-29T13:43:18.046Z,5.53
2017-12-29T13:45:52.530Z,5.37
2017-12-29T13:48:27.134Z,5.00
2017-12-29T13:51:01.574Z,2.53
2017-12-29T13:53:36.194Z,1.40
2017-12-29T13:56:10.558Z,4.13
2017-12-29T13:58:45.154Z,1.70
2017-12-29T14:01:19.673Z,2.07
2017-12-29T14:03:54.219Z,1.00
2017-12-29T14:06:28.697Z,4.37
2017-12-29T14:09:03.029Z,4.40
2017-12-29T14:11:37.560Z,1.77
2017-12-29T14:14:12.201Z,5.00
2017-12-29T14:16:46.661Z,2.00
2017-12-29T14:19:21.244Z,1.63
2017-12-29T14:21:55.647Z,2.03
2017-12-29T14:24:30.187Z,4.17
2017-12-29T14:27:04.629Z,1.70
2017-12-29T14:29:39.146Z,2.43
2017-12-29T14:32:13.609Z,2.10
2017-12-29T14:34:48.867Z,2.80
2017-12-29T14:37:23.214Z,2.77
2017-12-29T14:39:57.668Z,5.60
2017-12-29T14:42:32.422Z,1.27
2017-12-29T14:45:06.797Z,2.03
2017-12-29T14:47:41.365Z,1.23
2017-12-29T14:50:15.733Z,1.40
2017-12-29T14:52:50.305Z,2.63
2017-12-29T14:55:24.744Z,3.33
2017-12-29T14:57:59.366Z,3.13
2017-12-29T15:00:33.794Z,4.80
2017-12-29T15:03:08.433Z,3.40
2017-12-29T15:05:42.812Z,1.10
2017-12-29T15:08:17.433Z,3.90
2017-12-29T15:10:51.845Z,1.47
2017-12-29T15:13:26.421Z,1.20
2017-12-29T15:16:00.835Z,6.23
2017-12-29T15:18:35.082Z,3.17
2017-12-29T15:21:09.698Z,1.63
2017-12-29T15:23:44.171Z,5.50
2017-12-29T15:26:18.630Z,6.40
2017-12-29T15:28:53.229Z,7.00
2017-12-29T15:31:27.632Z,3.73
2017-12-29T15:34:02.240Z,2.00
2017-12-29T15:36:36.645Z,3.33
2017-12-29T15:39:11.180Z,3.73
2017-12-29T15:41:45.639Z,4.47
2017-12-29T15:44:20.169Z,1.50
2017-12-29T15:46:54.742Z,2.47
2017-12-29T15:49:29.287Z,2.30
2017-12-29T15:52:03.749Z,3.97
2017-12-29T15:54:38.410Z,3.03
2017-12-29T15:57:12.840Z,2.73
2017-12-29T15:59:47.418Z,2.33
2017-12-29T16:02:26.962Z,7.77
2017-12-29T16:05:01.258Z,2.70
2017-12-29T16:07:35.714Z,4.77
2017-12-29T16:10:10.110Z,10.03
2017-12-29T16:12:44.619Z,3.33
2017-12-29T16:15:19.089Z,3.90
2017-12-29T16:17:53.556Z,2.87
2017-12-29T16:20:28.005Z,4.40
2017-12-29T16:23:02.525Z,14.10
2017-12-29T16:25:36.900Z,3.17
2017-12-29T16:28:11.533Z,5.83
2017-12-29T16:30:46.025Z,3.47
2017-12-29T16:33:20.513Z,3.43
2017-12-29T16:35:55.022Z,9.93
2017-12-29T16:38:29.546Z,8.97
2017-12-29T16:41:04.027Z,2.50
2017-12-29T16:43:38.570Z,10.10
2017-12-29T16:46:12.926Z,5.33
2017-12-29T16:48:47.640Z,8.67
2017-12-29T16:51:22.080Z,3.57
2017-12-29T16:53:56.957Z,3.53
2017-12-29T16:56:32.105Z,3.13
2017-12-29T16:59:06.712Z,3.43
2017-12-29T17:01:41.275Z,7.03
2017-12-29T17:04:15.856Z,8.27
2017-12-29T17:06:50.314Z,5.63
2017-12-29T17:09:24.876Z,3.87
2017-12-29T17:11:59.260Z,8.93
2017-12-29T17:14:33.817Z,4.00
2017-12-29T17:17:08.170Z,9.77
2017-12-29T17:19:42.734Z,12.83
2017-12-29T17:22:17.158Z,2.53
2017-12-29T17:24:51.746Z,3.83
2017-12-29T17:27:26.178Z,7.20
2017-12-29T17:30:00.565Z,5.07
2017-12-29T17:32:34.930Z,8.57
2017-12-29T17:35:09.450Z,7.73
2017-12-29T17:37:44.005Z,5.50
2017-12-29T17:40:18.394Z,3.57
2017-12-29T17:42:52.831Z,2.50
2017-12-29T17:45:27.243Z,5.37
2017-12-29T17:48:01.746Z,4.97
2017-12-29T17:50:36.126Z,12.73
2017-12-29T17:53:10.669Z,21.53
2017-12-29T17:55:45.041Z,11.27
2017-12-29T17:58:19.535Z,13.70
2017-12-29T18:00:53.573Z,5.43
2017-12-29T18:03:28.121Z,10.43
2017-12-29T18:06:02.518Z,12.27
2017-12-29T18:08:37.053Z,13.57
2017-12-29T18:11:11.541Z,10.73
2017-12-29T18:13:46.041Z,13.13
2017-12-29T18:16:20.486Z,20.47
2017-12-29T18:18:54.857Z,6.83
2017-12-29T18:21:29.298Z,7.80
2017-12-29T18:24:03.819Z,5.00
2017-12-29T18:26:38.268Z,7.13
2017-12-29T18:29:12.797Z,9.77
2017-12-29T18:31:47.266Z,7.03
2017-12-29T18:34:21.806Z,8.20
2017-12-29T18:36:56.578Z,13.03
2017-12-29T18:39:31.086Z,9.20
2017-12-29T18:42:05.526Z,4.00
2017-12-29T18:44:40.194Z,23.60
2017-12-29T18:47:15.337Z,22.40
2017-12-29T18:49:49.785Z,13.90
2017-12-29T18:52:24.052Z,9.20
2017-12-29T18:54:59.141Z,6.33
2017-12-29T18:57:33.662Z,9.63
2017-12-29T19:00:08.201Z,4.67
2017-12-29T19:02:42.696Z,5.30
2017-12-29T19:05:17.160Z,7.30
2017-12-29T19:07:51.844Z,5.87
2017-12-29T19:10:26.458Z,7.07
2017-12-29T19:13:00.977Z,10.00
2017-12-29T19:15:35.489Z,7.27
2017-12-29T19:18:10.443Z,4.17
2017-12-29T19:20:44.962Z,16.10
2017-12-29T19:23:19.483Z,6.70
2017-12-29T19:25:53.953Z,4.33
2017-12-29T19:28:28.489Z,6.30
2017-12-29T19:31:02.956Z,3.20
2017-12-29T19:33:37.497Z,4.80
2017-12-29T19:36:11.881Z,5.20
2017-12-29T19:38:46.477Z,3.93
2017-12-29T19:41:20.970Z,4.17
2017-12-29T19:43:55.408Z,4.10
2017-12-29T19:46:29.830Z,7.00
2017-12-29T19:49:04.327Z,10.60
2017-12-29T19:51:38.683Z,5.67
2017-12-29T19:54:13.192Z,13.30
2017-12-29T19:56:47.625Z,4.60
2017-12-29T19:59:22.161Z,5.87
2017-12-29T20:01:56.574Z,6.80
2017-12-29T20:04:30.770Z,5.87
2017-12-29T20:07:05.161Z,5.90
2017-12-29T20:09:39.703Z,6.30
2017-12-29T20:12:14.101Z,5.87
2017-12-29T20:14:48.709Z,5.83
2017-12-29T20:17:23.190Z,6.43
2017-12-29T20:19:57.658Z,12.43
2017-12-29T20:22:32.035Z,8.00
2017-12-29T20:25:06.534Z,6.87
2017-12-29T20:27:41.065Z,7.37
2017-12-29T20:30:15.534Z,13.37
2017-12-29T20:32:50.045Z,15.10
2017-12-29T20:35:24.542Z,13.53
2017-12-29T20:37:59.074Z,12.20
2017-12-29T20:40:33.481Z,13.10
2017-12-29T20:43:07.982Z,12.10
2017-12-29T20:45:42.385Z,10.53
2017-12-29T20:48:16.889Z,8.60
2017-12-29T20:50:51.317Z,7.13
2017-12-29T20:53:25.866Z,12.13
2017-12-29T20:56:00.281Z,7.30
2017-12-29T20:58:34.692Z,8.93
2017-12-29T21:01:09.166Z,11.10
2017-12-29T21:03:43.717Z,10.93
2017-12-29T21:06:18.133Z,20.13
2017-12-29T21:08:52.661Z,22.60
2017-12-29T21:11:27.100Z,16.87
2017-12-29T21:14:02.845Z,17.40
2017-12-29T21:16:37.381Z,14.07
2017-12-29T21:19:11.969Z,14.00
2017-12-29T21:21:46.909Z,17.90
2017-12-29T21:24:21.297Z,12.03
2017-12-29T21:26:55.685Z,18.60
2017-12-29T21:29:30.285Z,32.90
2017-12-29T21:32:05.218Z,27.60
2017-12-29T21:34:39.701Z,12.40
2017-12-29T21:37:14.099Z,14.43
2017-12-29T21:39:48.478Z,13.30
2017-12-29T21:42:22.953Z,18.70
2017-12-29T21:44:57.461Z,18.43
2017-12-29T21:47:32.021Z,16.23
2017-12-29T21:50:06.678Z,23.70
2017-12-29T21:52:41.238Z,17.80
2017-12-29T21:55:15.618Z,22.60
2017-12-29T21:57:50.156Z,21.03
2017-12-29T22:00:25.479Z,21.00
2017-12-29T22:02:59.845Z,23.40
2017-12-29T22:05:34.446Z,22.83
2017-12-29T22:08:08.929Z,14.50
2017-12-29T22:10:43.351Z,18.07
2017-12-29T22:13:17.821Z,23.03
2017-12-29T22:15:52.201Z,18.87
2017-12-29T22:18:26.775Z,13.93
2017-12-29T22:21:01.145Z,14.30
2017-12-29T22:23:35.665Z,13.00
2017-12-29T22:26:10.060Z,17.50
2017-12-29T22:28:44.542Z,17.33
2017-12-29T22:31:18.647Z,19.60
2017-12-29T22:33:53.129Z,17.02
2017-12-29T22:36:27.559Z,17.50
2017-12-29T22:39:01.993Z,25.20
2017-12-29T22:41:36.393Z,17.17
2017-12-29T22:44:10.896Z,18.40
2017-12-29T22:46:45.653Z,35.38
2017-12-29T22:49:20.510Z,16.52
2017-12-29T22:51:54.988Z,13.63
2017-12-29T22:54:29.531Z,13.90
2017-12-29T22:57:03.892Z,16.20
2017-12-29T22:59:38.391Z,18.10
2017-12-29T23:02:12.990Z,19.93
2017-12-29T23:04:48.001Z,12.77
2017-12-29T23:07:22.726Z,11.82
2017-12-29T23:09:57.173Z,16.63
2017-12-29T23:12:31.601Z,20.07
2017-12-29T23:15:06.109Z,12.63
2017-12-29T23:17:40.694Z,12.57
2017-12-29T23:20:15.056Z,13.40
2017-12-29T23:22:49.843Z,10.27
2017-12-29T23:25:24.273Z,12.30
2017-12-29T23:27:59.404Z,22.20
2017-12-29T23:30:34.086Z,13.38
2017-12-29T23:33:09.294Z,12.98
2017-12-29T23:35:44.025Z,13.88
2017-12-29T23:38:18.808Z,16.08
2017-12-29T23:40:53.607Z,24.77
2017-12-29T23:43:28.529Z,18.12
2017-12-29T23:46:03.029Z,20.07
2017-12-29T23:48:37.607Z,19.43
2017-12-29T23:51:12.092Z,17.60
2017-12-29T23:53:46.905Z,11.98
2017-12-29T23:56:21.960Z,14.23
2017-12-29T23:58:56.388Z,8.97
